Pittsburgh, Pennsylvania
Current Conditions -  °F | °C
As of 4:58 PM on Thursday 27 Nov 2014 (Local Time) from KAGC Reporting Station
Light Snow Light Snow  
Wind Chill: 22°   Ceiling: 1600
Heat Index: 30°   Visibility: 1.5mi
Dew Point: 25°   Wind: 9mph
Humidity: 82%   Direction: 310°NW
Pressure: 30.12"   Gusts: 18mph
Location:  40.44°N, 80°W
Report Text: KAGC 272158Z 31008G16KT 1 1/2SM -SN SCT009 BKN016 OVC025 M01/M04 A3012 RMK AO2 P0000 T10111039
Loading
Personal Weather Stations






























Interactive Weather Map New forecast layout! Learn more

10-Day Weather Forecast

Advertisements
Track Severe Weather on mobile